sensor_id;sensor_type;location;lat;lon;timestamp;P1;durP1;ratioP1;P2;durP2;ratioP2
31910;SDS011;18457;52.432;16.914;2023-09-08T00:00:38;20.80;;;15.00;;
31910;SDS011;18457;52.432;16.914;2023-09-08T00:03:29;18.70;;;14.90;;
31910;SDS011;18457;52.432;16.914;2023-09-08T00:06:01;22.20;;;14.80;;
31910;SDS011;18457;52.432;16.914;2023-09-08T00:08:34;16.70;;;13.70;;
31910;SDS011;18457;52.432;16.914;2023-09-08T00:11:06;18.30;;;14.60;;
31910;SDS011;18457;52.432;16.914;2023-09-08T00:13:38;20.70;;;14.70;;
31910;SDS011;18457;52.432;16.914;2023-09-08T00:16:11;22.50;;;15.10;;
31910;SDS011;18457;52.432;16.914;2023-09-08T00:18:43;21.30;;;14.40;;
31910;SDS011;18457;52.432;16.914;2023-09-08T00:21:16;18.90;;;14.10;;
31910;SDS011;18457;52.432;16.914;2023-09-08T00:23:47;23.40;;;16.00;;
31910;SDS011;18457;52.432;16.914;2023-09-08T00:26:19;23.70;;;15.70;;
31910;SDS011;18457;52.432;16.914;2023-09-08T00:28:52;25.30;;;15.60;;
31910;SDS011;18457;52.432;16.914;2023-09-08T00:31:24;22.70;;;15.20;;
31910;SDS011;18457;52.432;16.914;2023-09-08T00:33:56;19.70;;;15.60;;
31910;SDS011;18457;52.432;16.914;2023-09-08T00:36:28;20.30;;;16.00;;
31910;SDS011;18457;52.432;16.914;2023-09-08T00:39:01;19.70;;;15.30;;
31910;SDS011;18457;52.432;16.914;2023-09-08T00:41:33;21.50;;;16.00;;
31910;SDS011;18457;52.432;16.914;2023-09-08T00:44:05;21.50;;;15.50;;
31910;SDS011;18457;52.432;16.914;2023-09-08T00:46:38;20.80;;;15.50;;
31910;SDS011;18457;52.432;16.914;2023-09-08T00:51:43;27.60;;;15.90;;
31910;SDS011;18457;52.432;16.914;2023-09-08T00:56:46;21.50;;;15.60;;
31910;SDS011;18457;52.432;16.914;2023-09-08T01:01:49;21.10;;;15.30;;
31910;SDS011;18457;52.432;16.914;2023-09-08T01:04:21;25.40;;;16.60;;
31910;SDS011;18457;52.432;16.914;2023-09-08T01:06:53;23.10;;;16.80;;
31910;SDS011;18457;52.432;16.914;2023-09-08T01:09:26;23.30;;;16.20;;
31910;SDS011;18457;52.432;16.914;2023-09-08T01:12:00;26.80;;;17.10;;
31910;SDS011;18457;52.432;16.914;2023-09-08T01:14:35;23.10;;;18.00;;
31910;SDS011;18457;52.432;16.914;2023-09-08T01:17:36;21.70;;;16.30;;
31910;SDS011;18457;52.432;16.914;2023-09-08T01:20:11;30.20;;;18.70;;
31910;SDS011;18457;52.432;16.914;2023-09-08T01:23:01;22.30;;;16.60;;
31910;SDS011;18457;52.432;16.914;2023-09-08T01:25:42;24.40;;;17.70;;
31910;SDS011;18457;52.432;16.914;2023-09-08T01:28:22;28.70;;;16.70;;
31910;SDS011;18457;52.432;16.914;2023-09-08T01:33:26;36.10;;;17.60;;
31910;SDS011;18457;52.432;16.914;2023-09-08T01:35:59;20.20;;;16.60;;
31910;SDS011;18457;52.432;16.914;2023-09-08T01:38:31;21.70;;;15.50;;
31910;SDS011;18457;52.432;16.914;2023-09-08T01:41:03;26.00;;;17.70;;
31910;SDS011;18457;52.432;16.914;2023-09-08T01:43:35;19.90;;;16.40;;
31910;SDS011;18457;52.432;16.914;2023-09-08T01:46:08;22.40;;;16.50;;
31910;SDS011;18457;52.432;16.914;2023-09-08T01:48:40;23.90;;;17.50;;
31910;SDS011;18457;52.432;16.914;2023-09-08T01:51:12;22.10;;;17.60;;
31910;SDS011;18457;52.432;16.914;2023-09-08T01:53:44;23.90;;;18.20;;
31910;SDS011;18457;52.432;16.914;2023-09-08T01:56:16;28.80;;;18.70;;
31910;SDS011;18457;52.432;16.914;2023-09-08T01:58:48;24.90;;;18.30;;
31910;SDS011;18457;52.432;16.914;2023-09-08T02:01:20;26.30;;;18.30;;
31910;SDS011;18457;52.432;16.914;2023-09-08T02:03:52;24.20;;;17.80;;
31910;SDS011;18457;52.432;16.914;2023-09-08T02:06:24;23.80;;;18.00;;
31910;SDS011;18457;52.432;16.914;2023-09-08T02:08:56;22.70;;;18.70;;
31910;SDS011;18457;52.432;16.914;2023-09-08T02:11:28;24.50;;;19.00;;
31910;SDS011;18457;52.432;16.914;2023-09-08T02:14:00;26.00;;;16.50;;
31910;SDS011;18457;52.432;16.914;2023-09-08T02:16:32;25.40;;;16.70;;
31910;SDS011;18457;52.432;16.914;2023-09-08T02:19:04;21.50;;;17.30;;
31910;SDS011;18457;52.432;16.914;2023-09-08T02:21:36;28.20;;;18.70;;
31910;SDS011;18457;52.432;16.914;2023-09-08T02:24:08;20.60;;;17.20;;
31910;SDS011;18457;52.432;16.914;2023-09-08T02:26:40;23.20;;;18.20;;
31910;SDS011;18457;52.432;16.914;2023-09-08T02:29:13;23.40;;;18.90;;
31910;SDS011;18457;52.432;16.914;2023-09-08T02:31:45;24.90;;;19.10;;
31910;SDS011;18457;52.432;16.914;2023-09-08T02:34:17;23.90;;;18.80;;
31910;SDS011;18457;52.432;16.914;2023-09-08T02:36:50;27.10;;;19.40;;
31910;SDS011;18457;52.432;16.914;2023-09-08T02:39:24;22.00;;;17.40;;
31910;SDS011;18457;52.432;16.914;2023-09-08T02:41:56;23.00;;;18.40;;
31910;SDS011;18457;52.432;16.914;2023-09-08T02:47:00;26.40;;;19.30;;
31910;SDS011;18457;52.432;16.914;2023-09-08T02:49:32;25.60;;;19.60;;
31910;SDS011;18457;52.432;16.914;2023-09-08T02:52:04;27.40;;;19.30;;
31910;SDS011;18457;52.432;16.914;2023-09-08T02:54:37;32.10;;;20.00;;
31910;SDS011;18457;52.432;16.914;2023-09-08T02:57:38;30.00;;;19.50;;
31910;SDS011;18457;52.432;16.914;2023-09-08T03:00:10;26.10;;;19.60;;
31910;SDS011;18457;52.432;16.914;2023-09-08T03:02:44;25.30;;;19.60;;
31910;SDS011;18457;52.432;16.914;2023-09-08T03:05:16;24.10;;;19.80;;
31910;SDS011;18457;52.432;16.914;2023-09-08T03:07:48;23.60;;;19.90;;
31910;SDS011;18457;52.432;16.914;2023-09-08T03:10:21;25.80;;;19.60;;
31910;SDS011;18457;52.432;16.914;2023-09-08T03:12:53;27.50;;;20.10;;
31910;SDS011;18457;52.432;16.914;2023-09-08T03:15:25;32.60;;;19.90;;
31910;SDS011;18457;52.432;16.914;2023-09-08T03:17:58;30.40;;;20.60;;
31910;SDS011;18457;52.432;16.914;2023-09-08T03:23:00;30.10;;;20.20;;
31910;SDS011;18457;52.432;16.914;2023-09-08T03:25:32;25.10;;;18.00;;
31910;SDS011;18457;52.432;16.914;2023-09-08T03:28:04;31.00;;;18.60;;
31910;SDS011;18457;52.432;16.914;2023-09-08T03:30:36;26.80;;;19.00;;
31910;SDS011;18457;52.432;16.914;2023-09-08T03:33:08;26.80;;;20.30;;
31910;SDS011;18457;52.432;16.914;2023-09-08T03:35:41;28.40;;;19.50;;
31910;SDS011;18457;52.432;16.914;2023-09-08T03:38:13;27.00;;;20.40;;
31910;SDS011;18457;52.432;16.914;2023-09-08T03:40:45;27.80;;;19.10;;
31910;SDS011;18457;52.432;16.914;2023-09-08T03:43:20;26.60;;;19.20;;
31910;SDS011;18457;52.432;16.914;2023-09-08T03:45:52;27.80;;;18.90;;
31910;SDS011;18457;52.432;16.914;2023-09-08T03:48:24;29.00;;;19.10;;
31910;SDS011;18457;52.432;16.914;2023-09-08T03:50:56;27.90;;;19.90;;
31910;SDS011;18457;52.432;16.914;2023-09-08T03:56:00;28.50;;;21.30;;
31910;SDS011;18457;52.432;16.914;2023-09-08T03:58:32;25.60;;;19.50;;
31910;SDS011;18457;52.432;16.914;2023-09-08T04:01:04;30.70;;;21.60;;
31910;SDS011;18457;52.432;16.914;2023-09-08T04:03:36;31.20;;;21.90;;
31910;SDS011;18457;52.432;16.914;2023-09-08T04:06:09;31.10;;;21.00;;
31910;SDS011;18457;52.432;16.914;2023-09-08T04:08:41;32.40;;;21.40;;
31910;SDS011;18457;52.432;16.914;2023-09-08T04:11:13;38.60;;;23.60;;
31910;SDS011;18457;52.432;16.914;2023-09-08T04:13:45;33.80;;;21.60;;
31910;SDS011;18457;52.432;16.914;2023-09-08T04:16:17;33.20;;;22.90;;
31910;SDS011;18457;52.432;16.914;2023-09-08T04:18:49;31.20;;;22.40;;
31910;SDS011;18457;52.432;16.914;2023-09-08T04:21:24;30.80;;;22.30;;
31910;SDS011;18457;52.432;16.914;2023-09-08T04:23:58;26.80;;;21.00;;
31910;SDS011;18457;52.432;16.914;2023-09-08T04:26:31;31.60;;;22.20;;
31910;SDS011;18457;52.432;16.914;2023-09-08T04:29:03;28.40;;;21.90;;
31910;SDS011;18457;52.432;16.914;2023-09-08T04:31:35;33.40;;;20.60;;
31910;SDS011;18457;52.432;16.914;2023-09-08T04:34:07;29.20;;;22.60;;
31910;SDS011;18457;52.432;16.914;2023-09-08T04:36:39;31.80;;;21.40;;
31910;SDS011;18457;52.432;16.914;2023-09-08T04:39:11;34.50;;;22.00;;
31910;SDS011;18457;52.432;16.914;2023-09-08T04:41:45;40.20;;;23.30;;
31910;SDS011;18457;52.432;16.914;2023-09-08T04:44:17;35.50;;;20.50;;
31910;SDS011;18457;52.432;16.914;2023-09-08T04:46:49;31.40;;;22.20;;
31910;SDS011;18457;52.432;16.914;2023-09-08T04:49:21;32.60;;;21.70;;
31910;SDS011;18457;52.432;16.914;2023-09-08T04:51:54;33.70;;;20.90;;
31910;SDS011;18457;52.432;16.914;2023-09-08T04:54:27;32.00;;;21.60;;
31910;SDS011;18457;52.432;16.914;2023-09-08T04:57:01;33.60;;;21.10;;
31910;SDS011;18457;52.432;16.914;2023-09-08T05:02:48;27.90;;;21.10;;
31910;SDS011;18457;52.432;16.914;2023-09-08T05:05:21;32.20;;;23.50;;
31910;SDS011;18457;52.432;16.914;2023-09-08T05:07:53;29.10;;;19.90;;
31910;SDS011;18457;52.432;16.914;2023-09-08T05:10:25;37.00;;;23.20;;
31910;SDS011;18457;52.432;16.914;2023-09-08T05:12:57;27.60;;;21.60;;
31910;SDS011;18457;52.432;16.914;2023-09-08T05:15:29;37.50;;;23.30;;
31910;SDS011;18457;52.432;16.914;2023-09-08T05:18:04;29.00;;;20.30;;
31910;SDS011;18457;52.432;16.914;2023-09-08T05:23:08;32.60;;;22.80;;
31910;SDS011;18457;52.432;16.914;2023-09-08T05:28:13;30.70;;;22.80;;
31910;SDS011;18457;52.432;16.914;2023-09-08T05:30:47;47.80;;;23.50;;
31910;SDS011;18457;52.432;16.914;2023-09-08T05:33:20;32.60;;;22.40;;
31910;SDS011;18457;52.432;16.914;2023-09-08T05:35:54;33.90;;;22.10;;
31910;SDS011;18457;52.432;16.914;2023-09-08T05:38:26;35.40;;;23.70;;
31910;SDS011;18457;52.432;16.914;2023-09-08T05:40:58;31.30;;;21.80;;
31910;SDS011;18457;52.432;16.914;2023-09-08T05:43:32;28.60;;;21.20;;
31910;SDS011;18457;52.432;16.914;2023-09-08T05:48:35;41.10;;;22.80;;
31910;SDS011;18457;52.432;16.914;2023-09-08T05:51:07;33.40;;;21.00;;
31910;SDS011;18457;52.432;16.914;2023-09-08T05:53:39;37.70;;;21.90;;
31910;SDS011;18457;52.432;16.914;2023-09-08T05:56:12;51.70;;;24.30;;
31910;SDS011;18457;52.432;16.914;2023-09-08T05:58:45;43.80;;;22.30;;
31910;SDS011;18457;52.432;16.914;2023-09-08T06:01:17;48.80;;;21.90;;
31910;SDS011;18457;52.432;16.914;2023-09-08T06:03:51;37.60;;;22.30;;
31910;SDS011;18457;52.432;16.914;2023-09-08T06:06:25;37.00;;;21.30;;
31910;SDS011;18457;52.432;16.914;2023-09-08T06:08:57;39.20;;;21.80;;
31910;SDS011;18457;52.432;16.914;2023-09-08T06:11:29;34.40;;;20.70;;
31910;SDS011;18457;52.432;16.914;2023-09-08T06:16:36;28.30;;;20.10;;
31910;SDS011;18457;52.432;16.914;2023-09-08T06:19:11;30.20;;;22.20;;
31910;SDS011;18457;52.432;16.914;2023-09-08T06:21:43;27.60;;;20.60;;
31910;SDS011;18457;52.432;16.914;2023-09-08T06:24:15;27.80;;;20.60;;
31910;SDS011;18457;52.432;16.914;2023-09-08T06:26:47;41.70;;;21.60;;
31910;SDS011;18457;52.432;16.914;2023-09-08T06:31:51;32.30;;;20.30;;
31910;SDS011;18457;52.432;16.914;2023-09-08T06:34:23;31.00;;;20.10;;
31910;SDS011;18457;52.432;16.914;2023-09-08T06:36:55;32.70;;;19.70;;
31910;SDS011;18457;52.432;16.914;2023-09-08T06:39:27;32.60;;;19.10;;
31910;SDS011;18457;52.432;16.914;2023-09-08T06:41:59;32.00;;;21.00;;
31910;SDS011;18457;52.432;16.914;2023-09-08T06:44:31;31.00;;;21.30;;
31910;SDS011;18457;52.432;16.914;2023-09-08T06:47:05;29.30;;;19.80;;
31910;SDS011;18457;52.432;16.914;2023-09-08T06:49:38;52.10;;;21.90;;
31910;SDS011;18457;52.432;16.914;2023-09-08T06:52:11;28.20;;;19.50;;
31910;SDS011;18457;52.432;16.914;2023-09-08T06:54:43;30.80;;;18.30;;
31910;SDS011;18457;52.432;16.914;2023-09-08T06:59:48;26.70;;;19.30;;
31910;SDS011;18457;52.432;16.914;2023-09-08T07:02:20;26.70;;;17.70;;
31910;SDS011;18457;52.432;16.914;2023-09-08T07:04:53;30.10;;;19.00;;
31910;SDS011;18457;52.432;16.914;2023-09-08T07:07:25;45.00;;;21.60;;
31910;SDS011;18457;52.432;16.914;2023-09-08T07:09:57;40.00;;;20.30;;
31910;SDS011;18457;52.432;16.914;2023-09-08T07:12:53;28.30;;;18.30;;
31910;SDS011;18457;52.432;16.914;2023-09-08T07:15:25;21.60;;;17.60;;
31910;SDS011;18457;52.432;16.914;2023-09-08T07:17:57;26.30;;;17.10;;
31910;SDS011;18457;52.432;16.914;2023-09-08T07:20:32;28.20;;;18.40;;
31910;SDS011;18457;52.432;16.914;2023-09-08T07:23:05;22.70;;;16.40;;
31910;SDS011;18457;52.432;16.914;2023-09-08T07:25:38;29.90;;;18.40;;
31910;SDS011;18457;52.432;16.914;2023-09-08T07:28:10;25.40;;;16.10;;
31910;SDS011;18457;52.432;16.914;2023-09-08T07:30:45;25.10;;;16.30;;
31910;SDS011;18457;52.432;16.914;2023-09-08T07:33:18;23.60;;;16.40;;
31910;SDS011;18457;52.432;16.914;2023-09-08T07:35:52;22.20;;;16.00;;
31910;SDS011;18457;52.432;16.914;2023-09-08T07:38:24;21.50;;;15.20;;
31910;SDS011;18457;52.432;16.914;2023-09-08T07:40:56;27.00;;;15.20;;
31910;SDS011;18457;52.432;16.914;2023-09-08T07:43:29;25.90;;;15.30;;
31910;SDS011;18457;52.432;16.914;2023-09-08T07:46:01;21.60;;;14.50;;
31910;SDS011;18457;52.432;16.914;2023-09-08T07:48:33;17.40;;;14.10;;
31910;SDS011;18457;52.432;16.914;2023-09-08T07:51:06;20.10;;;12.70;;
31910;SDS011;18457;52.432;16.914;2023-09-08T07:53:38;23.40;;;15.30;;
31910;SDS011;18457;52.432;16.914;2023-09-08T07:58:41;21.90;;;12.80;;
31910;SDS011;18457;52.432;16.914;2023-09-08T08:01:13;20.00;;;12.50;;
31910;SDS011;18457;52.432;16.914;2023-09-08T08:03:45;20.20;;;12.90;;
31910;SDS011;18457;52.432;16.914;2023-09-08T08:06:17;18.80;;;11.20;;
31910;SDS011;18457;52.432;16.914;2023-09-08T08:08:49;17.20;;;10.50;;
31910;SDS011;18457;52.432;16.914;2023-09-08T08:11:21;19.90;;;13.90;;
31910;SDS011;18457;52.432;16.914;2023-09-08T08:13:54;17.30;;;12.50;;
31910;SDS011;18457;52.432;16.914;2023-09-08T08:16:26;23.20;;;12.00;;
31910;SDS011;18457;52.432;16.914;2023-09-08T08:18:59;21.50;;;12.20;;
31910;SDS011;18457;52.432;16.914;2023-09-08T08:21:33;20.10;;;11.20;;
31910;SDS011;18457;52.432;16.914;2023-09-08T08:24:07;16.10;;;11.30;;
31910;SDS011;18457;52.432;16.914;2023-09-08T08:26:39;15.80;;;11.10;;
31910;SDS011;18457;52.432;16.914;2023-09-08T08:29:11;20.30;;;12.00;;
31910;SDS011;18457;52.432;16.914;2023-09-08T08:31:43;15.20;;;11.30;;
31910;SDS011;18457;52.432;16.914;2023-09-08T08:34:15;17.60;;;11.00;;
31910;SDS011;18457;52.432;16.914;2023-09-08T08:36:47;18.60;;;11.90;;
31910;SDS011;18457;52.432;16.914;2023-09-08T08:39:19;14.30;;;9.40;;
31910;SDS011;18457;52.432;16.914;2023-09-08T08:41:52;14.50;;;9.50;;
31910;SDS011;18457;52.432;16.914;2023-09-08T08:44:24;13.50;;;10.10;;
31910;SDS011;18457;52.432;16.914;2023-09-08T08:46:58;11.30;;;9.20;;
31910;SDS011;18457;52.432;16.914;2023-09-08T08:49:32;16.30;;;10.70;;
31910;SDS011;18457;52.432;16.914;2023-09-08T08:52:05;20.70;;;10.70;;
31910;SDS011;18457;52.432;16.914;2023-09-08T08:54:39;15.40;;;9.30;;
31910;SDS011;18457;52.432;16.914;2023-09-08T08:57:12;14.10;;;8.50;;
31910;SDS011;18457;52.432;16.914;2023-09-08T08:59:45;20.70;;;9.10;;
31910;SDS011;18457;52.432;16.914;2023-09-08T09:02:18;14.20;;;9.60;;
31910;SDS011;18457;52.432;16.914;2023-09-08T09:04:51;12.40;;;8.50;;
31910;SDS011;18457;52.432;16.914;2023-09-08T09:07:24;13.80;;;8.50;;
31910;SDS011;18457;52.432;16.914;2023-09-08T09:09:57;13.30;;;10.10;;
31910;SDS011;18457;52.432;16.914;2023-09-08T09:12:30;12.00;;;9.70;;
31910;SDS011;18457;52.432;16.914;2023-09-08T09:15:03;17.10;;;9.40;;
31910;SDS011;18457;52.432;16.914;2023-09-08T09:18:05;14.50;;;9.70;;
31910;SDS011;18457;52.432;16.914;2023-09-08T09:20:38;15.50;;;9.30;;
31910;SDS011;18457;52.432;16.914;2023-09-08T09:23:11;13.60;;;8.90;;
31910;SDS011;18457;52.432;16.914;2023-09-08T09:25:56;10.20;;;8.60;;
31910;SDS011;18457;52.432;16.914;2023-09-08T09:28:29;14.30;;;9.10;;
31910;SDS011;18457;52.432;16.914;2023-09-08T09:31:02;13.20;;;8.80;;
31910;SDS011;18457;52.432;16.914;2023-09-08T09:33:34;12.50;;;9.40;;
31910;SDS011;18457;52.432;16.914;2023-09-08T09:36:06;11.70;;;8.50;;
31910;SDS011;18457;52.432;16.914;2023-09-08T09:38:38;11.20;;;9.00;;
31910;SDS011;18457;52.432;16.914;2023-09-08T09:41:10;12.10;;;8.20;;
31910;SDS011;18457;52.432;16.914;2023-09-08T09:43:42;11.60;;;9.00;;
31910;SDS011;18457;52.432;16.914;2023-09-08T09:46:15;13.30;;;9.20;;
31910;SDS011;18457;52.432;16.914;2023-09-08T09:48:51;12.10;;;8.90;;
31910;SDS011;18457;52.432;16.914;2023-09-08T09:51:26;11.70;;;9.30;;
31910;SDS011;18457;52.432;16.914;2023-09-08T09:53:59;13.00;;;8.30;;
31910;SDS011;18457;52.432;16.914;2023-09-08T09:56:37;16.60;;;9.30;;
31910;SDS011;18457;52.432;16.914;2023-09-08T09:59:12;11.60;;;8.20;;
31910;SDS011;18457;52.432;16.914;2023-09-08T10:04:16;10.30;;;7.90;;
31910;SDS011;18457;52.432;16.914;2023-09-08T10:09:18;12.70;;;8.30;;
31910;SDS011;18457;52.432;16.914;2023-09-08T10:11:51;11.30;;;8.30;;
31910;SDS011;18457;52.432;16.914;2023-09-08T10:14:29;14.30;;;8.30;;
31910;SDS011;18457;52.432;16.914;2023-09-08T10:17:02;13.60;;;8.80;;
31910;SDS011;18457;52.432;16.914;2023-09-08T10:19:36;13.60;;;8.40;;
31910;SDS011;18457;52.432;16.914;2023-09-08T10:22:13;9.40;;;8.10;;
31910;SDS011;18457;52.432;16.914;2023-09-08T10:24:50;14.10;;;8.50;;
31910;SDS011;18457;52.432;16.914;2023-09-08T10:27:26;11.80;;;7.30;;
31910;SDS011;18457;52.432;16.914;2023-09-08T10:29:58;15.50;;;8.00;;
31910;SDS011;18457;52.432;16.914;2023-09-08T10:32:33;11.80;;;7.30;;
31910;SDS011;18457;52.432;16.914;2023-09-08T10:35:07;10.60;;;7.90;;
31910;SDS011;18457;52.432;16.914;2023-09-08T10:37:39;10.90;;;7.40;;
31910;SDS011;18457;52.432;16.914;2023-09-08T10:40:24;11.10;;;8.20;;
31910;SDS011;18457;52.432;16.914;2023-09-08T10:43:09;12.30;;;8.60;;
31910;SDS011;18457;52.432;16.914;2023-09-08T10:45:41;11.80;;;8.00;;
31910;SDS011;18457;52.432;16.914;2023-09-08T10:50:45;13.60;;;6.60;;
31910;SDS011;18457;52.432;16.914;2023-09-08T10:53:17;12.40;;;6.80;;
31910;SDS011;18457;52.432;16.914;2023-09-08T10:55:52;12.80;;;7.10;;
31910;SDS011;18457;52.432;16.914;2023-09-08T10:58:48;14.80;;;6.70;;
31910;SDS011;18457;52.432;16.914;2023-09-08T11:01:22;17.80;;;7.80;;
31910;SDS011;18457;52.432;16.914;2023-09-08T11:03:57;9.10;;;7.30;;
31910;SDS011;18457;52.432;16.914;2023-09-08T11:06:35;13.30;;;7.20;;
31910;SDS011;18457;52.432;16.914;2023-09-08T11:09:07;12.20;;;7.10;;
31910;SDS011;18457;52.432;16.914;2023-09-08T11:11:39;13.20;;;7.80;;
31910;SDS011;18457;52.432;16.914;2023-09-08T11:16:43;12.00;;;6.90;;
31910;SDS011;18457;52.432;16.914;2023-09-08T11:19:16;10.20;;;7.70;;
31910;SDS011;18457;52.432;16.914;2023-09-08T11:21:48;10.80;;;7.20;;
31910;SDS011;18457;52.432;16.914;2023-09-08T11:24:20;13.50;;;7.00;;
31910;SDS011;18457;52.432;16.914;2023-09-08T11:26:52;11.50;;;7.40;;
31910;SDS011;18457;52.432;16.914;2023-09-08T11:29:25;13.60;;;7.10;;
31910;SDS011;18457;52.432;16.914;2023-09-08T11:31:58;8.40;;;7.20;;
31910;SDS011;18457;52.432;16.914;2023-09-08T11:34:31;8.00;;;6.10;;
31910;SDS011;18457;52.432;16.914;2023-09-08T11:37:07;11.20;;;7.30;;
31910;SDS011;18457;52.432;16.914;2023-09-08T11:39:42;13.90;;;7.30;;
31910;SDS011;18457;52.432;16.914;2023-09-08T11:42:15;11.20;;;7.50;;
31910;SDS011;18457;52.432;16.914;2023-09-08T11:44:50;10.10;;;7.20;;
31910;SDS011;18457;52.432;16.914;2023-09-08T11:47:24;7.50;;;6.60;;
31910;SDS011;18457;52.432;16.914;2023-09-08T11:49:56;23.00;;;7.80;;
31910;SDS011;18457;52.432;16.914;2023-09-08T11:52:29;11.30;;;6.50;;
31910;SDS011;18457;52.432;16.914;2023-09-08T11:55:02;13.00;;;7.20;;
31910;SDS011;18457;52.432;16.914;2023-09-08T11:57:36;14.20;;;7.60;;
31910;SDS011;18457;52.432;16.914;2023-09-08T12:00:09;11.60;;;6.70;;
31910;SDS011;18457;52.432;16.914;2023-09-08T12:03:12;9.00;;;6.30;;
31910;SDS011;18457;52.432;16.914;2023-09-08T12:05:50;11.60;;;7.50;;
31910;SDS011;18457;52.432;16.914;2023-09-08T12:08:25;8.30;;;6.60;;
31910;SDS011;18457;52.432;16.914;2023-09-08T12:10:58;9.40;;;6.70;;
31910;SDS011;18457;52.432;16.914;2023-09-08T12:13:30;10.90;;;6.60;;
31910;SDS011;18457;52.432;16.914;2023-09-08T12:16:02;9.00;;;6.90;;
31910;SDS011;18457;52.432;16.914;2023-09-08T12:18:48;8.10;;;6.20;;
31910;SDS011;18457;52.432;16.914;2023-09-08T12:21:20;9.30;;;6.90;;
31910;SDS011;18457;52.432;16.914;2023-09-08T12:23:53;10.30;;;6.30;;
31910;SDS011;18457;52.432;16.914;2023-09-08T12:26:26;10.20;;;6.90;;
31910;SDS011;18457;52.432;16.914;2023-09-08T12:28:59;8.90;;;6.60;;
31910;SDS011;18457;52.432;16.914;2023-09-08T12:31:33;10.70;;;7.50;;
31910;SDS011;18457;52.432;16.914;2023-09-08T12:34:06;10.30;;;7.50;;
31910;SDS011;18457;52.432;16.914;2023-09-08T12:36:43;9.40;;;6.80;;
31910;SDS011;18457;52.432;16.914;2023-09-08T12:39:15;9.20;;;6.60;;
31910;SDS011;18457;52.432;16.914;2023-09-08T12:41:47;12.80;;;6.70;;
31910;SDS011;18457;52.432;16.914;2023-09-08T12:44:20;7.00;;;6.20;;
31910;SDS011;18457;52.432;16.914;2023-09-08T12:46:52;8.60;;;6.50;;
31910;SDS011;18457;52.432;16.914;2023-09-08T12:49:24;13.40;;;6.70;;
31910;SDS011;18457;52.432;16.914;2023-09-08T12:51:56;8.10;;;6.90;;
31910;SDS011;18457;52.432;16.914;2023-09-08T12:54:28;8.60;;;6.60;;
31910;SDS011;18457;52.432;16.914;2023-09-08T12:59:35;8.80;;;6.30;;
31910;SDS011;18457;52.432;16.914;2023-09-08T13:02:07;13.60;;;7.30;;
31910;SDS011;18457;52.432;16.914;2023-09-08T13:04:41;13.00;;;6.90;;
31910;SDS011;18457;52.432;16.914;2023-09-08T13:07:18;11.40;;;6.80;;
31910;SDS011;18457;52.432;16.914;2023-09-08T13:12:20;8.40;;;5.60;;
31910;SDS011;18457;52.432;16.914;2023-09-08T13:14:53;12.30;;;6.80;;
31910;SDS011;18457;52.432;16.914;2023-09-08T13:17:25;7.60;;;6.10;;
31910;SDS011;18457;52.432;16.914;2023-09-08T13:19:57;8.90;;;6.10;;
31910;SDS011;18457;52.432;16.914;2023-09-08T13:22:29;10.60;;;7.10;;
31910;SDS011;18457;52.432;16.914;2023-09-08T13:27:32;10.00;;;6.60;;
31910;SDS011;18457;52.432;16.914;2023-09-08T13:30:10;8.60;;;6.50;;
31910;SDS011;18457;52.432;16.914;2023-09-08T13:32:44;7.20;;;6.10;;
31910;SDS011;18457;52.432;16.914;2023-09-08T13:35:17;10.20;;;7.50;;
31910;SDS011;18457;52.432;16.914;2023-09-08T13:37:49;9.10;;;6.70;;
31910;SDS011;18457;52.432;16.914;2023-09-08T13:40:21;13.00;;;6.70;;
31910;SDS011;18457;52.432;16.914;2023-09-08T13:43:22;10.70;;;7.20;;
31910;SDS011;18457;52.432;16.914;2023-09-08T13:45:54;9.50;;;6.60;;
31910;SDS011;18457;52.432;16.914;2023-09-08T13:48:27;14.60;;;6.50;;
31910;SDS011;18457;52.432;16.914;2023-09-08T13:51:02;10.90;;;6.60;;
31910;SDS011;18457;52.432;16.914;2023-09-08T13:53:35;12.20;;;6.90;;
31910;SDS011;18457;52.432;16.914;2023-09-08T13:56:15;27.90;;;8.20;;
31910;SDS011;18457;52.432;16.914;2023-09-08T13:58:49;8.10;;;6.60;;
31910;SDS011;18457;52.432;16.914;2023-09-08T14:01:24;11.60;;;7.00;;
31910;SDS011;18457;52.432;16.914;2023-09-08T14:04:01;9.90;;;6.60;;
31910;SDS011;18457;52.432;16.914;2023-09-08T14:06:39;9.40;;;6.10;;
31910;SDS011;18457;52.432;16.914;2023-09-08T14:09:19;8.60;;;6.40;;
31910;SDS011;18457;52.432;16.914;2023-09-08T14:11:54;9.20;;;6.20;;
31910;SDS011;18457;52.432;16.914;2023-09-08T14:14:29;12.20;;;7.20;;
31910;SDS011;18457;52.432;16.914;2023-09-08T14:17:01;16.90;;;7.80;;
31910;SDS011;18457;52.432;16.914;2023-09-08T14:19:34;10.00;;;7.30;;
31910;SDS011;18457;52.432;16.914;2023-09-08T14:22:06;10.00;;;6.50;;
31910;SDS011;18457;52.432;16.914;2023-09-08T14:24:38;9.70;;;6.90;;
31910;SDS011;18457;52.432;16.914;2023-09-08T14:29:40;12.80;;;6.80;;
31910;SDS011;18457;52.432;16.914;2023-09-08T14:34:43;10.00;;;6.30;;
31910;SDS011;18457;52.432;16.914;2023-09-08T14:37:15;8.30;;;6.30;;
31910;SDS011;18457;52.432;16.914;2023-09-08T14:39:47;10.60;;;6.60;;
31910;SDS011;18457;52.432;16.914;2023-09-08T14:42:19;7.20;;;5.80;;
31910;SDS011;18457;52.432;16.914;2023-09-08T14:44:51;9.90;;;6.70;;
31910;SDS011;18457;52.432;16.914;2023-09-08T14:47:23;10.50;;;6.70;;
31910;SDS011;18457;52.432;16.914;2023-09-08T14:52:26;10.30;;;6.20;;
31910;SDS011;18457;52.432;16.914;2023-09-08T14:54:58;8.50;;;6.20;;
31910;SDS011;18457;52.432;16.914;2023-09-08T14:57:30;10.20;;;7.30;;
31910;SDS011;18457;52.432;16.914;2023-09-08T15:00:03;9.10;;;6.70;;
31910;SDS011;18457;52.432;16.914;2023-09-08T15:02:37;10.60;;;6.20;;
31910;SDS011;18457;52.432;16.914;2023-09-08T15:05:10;9.50;;;6.30;;
31910;SDS011;18457;52.432;16.914;2023-09-08T15:07:42;10.90;;;7.40;;
31910;SDS011;18457;52.432;16.914;2023-09-08T15:10:14;11.70;;;6.70;;
31910;SDS011;18457;52.432;16.914;2023-09-08T15:12:46;13.80;;;6.30;;
31910;SDS011;18457;52.432;16.914;2023-09-08T15:15:18;24.80;;;8.20;;
31910;SDS011;18457;52.432;16.914;2023-09-08T15:17:53;8.00;;;6.70;;
31910;SDS011;18457;52.432;16.914;2023-09-08T15:20:25;14.80;;;8.10;;
31910;SDS011;18457;52.432;16.914;2023-09-08T15:22:57;13.50;;;7.30;;
31910;SDS011;18457;52.432;16.914;2023-09-08T15:25:29;12.20;;;8.10;;
31910;SDS011;18457;52.432;16.914;2023-09-08T15:28:25;14.90;;;6.50;;
31910;SDS011;18457;52.432;16.914;2023-09-08T15:30:57;8.60;;;6.70;;
31910;SDS011;18457;52.432;16.914;2023-09-08T15:33:29;9.80;;;6.10;;
31910;SDS011;18457;52.432;16.914;2023-09-08T15:38:32;8.80;;;7.00;;
31910;SDS011;18457;52.432;16.914;2023-09-08T15:43:50;12.10;;;6.40;;
31910;SDS011;18457;52.432;16.914;2023-09-08T15:46:22;11.80;;;7.00;;
31910;SDS011;18457;52.432;16.914;2023-09-08T15:48:55;10.30;;;6.50;;
31910;SDS011;18457;52.432;16.914;2023-09-08T15:51:28;11.40;;;6.80;;
31910;SDS011;18457;52.432;16.914;2023-09-08T15:54:00;11.50;;;6.00;;
31910;SDS011;18457;52.432;16.914;2023-09-08T15:56:32;7.80;;;6.70;;
31910;SDS011;18457;52.432;16.914;2023-09-08T15:59:04;13.00;;;6.30;;
31910;SDS011;18457;52.432;16.914;2023-09-08T16:01:36;12.10;;;6.50;;